Time;durP1;ratioP1;P1;durP2;ratioP2;P2;SDS_P1;SDS_P2;PMS_P1;PMS_P2;Temp;Humidity;BMP_temperature;BMP_pressure;BME280_temperature;BME280_humidity;BME280_pressure;Samples;Min_cycle;Max_cycle;Signal;HPM_P1;HPM_P2
2024/01/03 00:01:20;;;;;;;48.42;18.35;;;;;;;7.46;99.38;99636.69;5076083;28;20071;-64
2024/01/03 00:03:45;;;;;;;52.33;17.48;;;;;;;7.44;98.53;99633.38;5075886;28;20082;-65
2024/01/03 00:06:11;;;;;;;36.20;18.13;;;;;;;7.57;99.57;99643.56;5075899;28;20103;-64
2024/01/03 00:08:38;;;;;;;52.80;15.43;;;;;;;7.55;98.68;99640.25;5075145;28;20040;-64
2024/01/03 00:11:04;;;;;;;48.47;18.08;;;;;;;7.52;99.93;99643.19;5077423;28;20040;-64
2024/01/03 00:13:32;;;;;;;43.95;16.90;;;;;;;7.56;99.85;99637.47;5075429;28;20047;-64
2024/01/03 00:16:03;;;;;;;38.80;15.00;;;;;;;7.56;99.80;99629.56;5076346;28;20040;-64
2024/01/03 00:18:35;;;;;;;64.20;15.93;;;;;;;7.52;99.41;99637.91;5073484;28;20093;-64
2024/01/03 00:21:01;;;;;;;96.70;19.08;;;;;;;7.48;99.43;99645.28;5075981;28;20052;-64
2024/01/03 00:23:39;;;;;;;75.75;16.05;;;;;;;7.21;100.00;99638.13;5075342;28;20272;-66
2024/01/03 00:26:07;;;;;;;64.72;14.68;;;;;;;7.10;100.00;99638.28;5076388;28;20225;-65
2024/01/03 00:28:32;;;;;;;56.15;16.23;;;;;;;7.04;100.00;99637.06;5075625;28;20060;-64
2024/01/03 00:30:58;;;;;;;130.63;20.63;;;;;;;6.83;100.00;99643.47;5080226;28;20048;-64
2024/01/03 00:33:23;;;;;;;211.18;29.98;;;;;;;6.87;100.00;99634.31;5079604;28;20033;-64
2024/01/03 00:35:51;;;;;;;110.28;24.02;;;;;;;6.89;100.00;99641.09;5079890;28;20154;-66
2024/01/03 00:38:16;;;;;;;128.25;21.25;;;;;;;6.98;100.00;99636.81;5078846;28;20033;-65
2024/01/03 00:40:57;;;;;;;83.47;18.58;;;;;;;6.91;100.00;99643.59;5078855;28;20047;-64
2024/01/03 00:43:22;;;;;;;96.18;17.08;;;;;;;6.84;100.00;99650.41;5080088;28;20028;-64
2024/01/03 00:45:48;;;;;;;50.88;15.68;;;;;;;6.90;100.00;99645.41;5079308;28;20044;-64
2024/01/03 00:48:17;;;;;;;103.80;19.08;;;;;;;6.95;100.00;99647.63;5080084;28;20024;-64
2024/01/03 00:50:42;;;;;;;91.38;17.02;;;;;;;6.96;100.00;99625.59;5078189;28;20199;-64
2024/01/03 00:53:08;;;;;;;79.05;15.68;;;;;;;7.04;100.00;99631.78;5080759;28;20032;-65
2024/01/03 00:55:34;;;;;;;65.30;15.00;;;;;;;7.01;100.00;99637.34;5077293;28;20337;-65
2024/01/03 00:58:01;;;;;;;44.88;15.18;;;;;;;7.02;100.00;99635.53;5078387;28;20037;-64
2024/01/03 01:00:26;;;;;;;31.65;13.65;;;;;;;6.86;100.00;99636.13;5077824;28;20289;-64
2024/01/03 01:02:52;;;;;;;50.75;13.52;;;;;;;6.97;100.00;99628.06;5079915;28;20040;-63
2024/01/03 01:05:18;;;;;;;25.00;12.38;;;;;;;6.93;100.00;99631.97;5078758;28;20113;-66
2024/01/03 01:07:44;;;;;;;37.47;13.68;;;;;;;6.93;100.00;99639.03;5079886;28;20139;-65
2024/01/03 01:10:09;;;;;;;31.42;12.77;;;;;;;6.90;100.00;99626.16;5078385;28;20274;-64
2024/01/03 01:12:35;;;;;;;26.63;12.68;;;;;;;6.79;100.00;99645.56;5079577;28;20090;-65
2024/01/03 01:15:01;;;;;;;42.60;14.38;;;;;;;6.90;100.00;99640.13;5079366;28;20048;-65
2024/01/03 01:17:26;;;;;;;36.67;13.57;;;;;;;6.99;100.00;99641.09;5078556;28;20036;-65
2024/01/03 01:19:52;;;;;;;63.05;15.52;;;;;;;7.07;100.00;99635.94;5078495;28;20048;-65
2024/01/03 01:22:18;;;;;;;39.20;14.48;;;;;;;7.13;100.00;99634.53;5076722;28;20040;-66
2024/01/03 01:24:43;;;;;;;62.85;16.08;;;;;;;7.12;100.00;99638.97;5077384;28;20037;-65
2024/01/03 01:27:09;;;;;;;66.70;17.05;;;;;;;7.13;100.00;99639.81;5074895;28;20036;-64
2024/01/03 01:29:34;;;;;;;42.95;14.82;;;;;;;7.21;100.00;99639.94;5079343;28;20047;-65
2024/01/03 01:32:00;;;;;;;71.20;16.63;;;;;;;7.19;100.00;99624.28;5077173;28;20036;-66
2024/01/03 01:34:26;;;;;;;69.10;15.98;;;;;;;7.38;100.00;99641.00;5078246;28;20028;-66
2024/01/03 01:36:51;;;;;;;71.15;15.98;;;;;;;7.42;100.00;99650.28;5078513;28;20078;-64
2024/01/03 01:39:17;;;;;;;62.05;14.07;;;;;;;7.39;100.00;99642.69;5078125;28;20070;-65
2024/01/03 01:41:43;;;;;;;56.40;14.90;;;;;;;7.39;100.00;99642.69;5079007;28;20041;-64
2024/01/03 01:44:08;;;;;;;92.45;18.38;;;;;;;7.41;100.00;99643.38;5077873;28;20212;-64
2024/01/03 01:46:36;;;;;;;41.35;15.23;;;;;;;7.39;100.00;99640.03;5078799;28;20033;-65
2024/01/03 01:49:03;;;;;;;55.30;15.23;;;;;;;7.41;100.00;99640.72;5073107;28;20040;-65
2024/01/03 01:51:29;;;;;;;140.57;22.58;;;;;;;7.44;100.00;99651.81;5079712;28;20040;-64
2024/01/03 01:53:55;;;;;;;73.18;17.05;;;;;;;7.45;100.00;99660.53;5076977;28;20021;-64
2024/01/03 01:56:21;;;;;;;53.10;16.02;;;;;;;7.38;100.00;99662.09;5079145;28;20113;-64
2024/01/03 01:58:48;;;;;;;63.55;15.20;;;;;;;7.18;100.00;99654.22;5076990;28;20024;-65
2024/01/03 02:01:14;;;;;;;65.85;16.38;;;;;;;7.29;100.00;99653.25;5078464;28;20286;-66
2024/01/03 02:03:40;;;;;;;103.03;18.48;;;;;;;7.30;100.00;99657.53;5076902;28;20032;-65
2024/01/03 02:06:08;;;;;;;55.03;14.98;;;;;;;7.28;100.00;99649.78;5077546;28;20037;-64
2024/01/03 02:08:34;;;;;;;44.42;16.08;;;;;;;7.18;100.00;99645.47;5077492;28;20047;-64
2024/01/03 02:11:01;;;;;;;54.28;16.23;;;;;;;7.14;100.00;99654.63;5077698;28;20103;-64
2024/01/03 02:13:26;;;;;;;47.00;15.02;;;;;;;7.24;100.00;99655.44;5078699;28;20040;-64
2024/01/03 02:15:52;;;;;;;41.53;16.13;;;;;;;7.14;100.00;99646.75;5077259;28;20087;-65
2024/01/03 02:18:19;;;;;;;66.78;16.15;;;;;;;7.19;100.00;99641.88;5077637;28;20032;-65
2024/01/03 02:20:46;;;;;;;59.97;16.67;;;;;;;7.27;100.00;99636.72;5076919;28;20047;-65
2024/01/03 02:23:12;;;;;;;66.03;15.93;;;;;;;7.17;100.00;99628.84;5079056;28;20055;-65
2024/01/03 02:25:37;;;;;;;38.83;13.60;;;;;;;7.07;100.00;99624.59;5076531;28;20337;-64
2024/01/03 02:28:08;;;;;;;51.83;17.90;;;;;;;6.70;100.00;99628.81;5078473;28;20054;-66
2024/01/03 02:30:33;;;;;;;41.30;15.07;;;;;;;6.56;100.00;99618.72;5075845;28;20109;-65
2024/01/03 02:32:58;;;;;;;56.17;17.73;;;;;;;6.59;100.00;99626.31;5078076;28;20103;-64
2024/01/03 02:35:24;;;;;;;82.78;17.17;;;;;;;6.78;100.00;99625.47;5076975;28;20098;-64
2024/01/03 02:37:49;;;;;;;78.03;16.95;;;;;;;6.83;100.00;99625.06;5077735;28;20044;-64
2024/01/03 02:40:15;;;;;;;46.58;17.05;;;;;;;6.87;100.00;99615.91;5076942;28;20048;-64
2024/01/03 02:42:40;;;;;;;45.70;16.40;;;;;;;6.94;100.00;99614.38;5077833;28;20032;-64
2024/01/03 02:45:06;;;;;;;33.53;15.48;;;;;;;6.71;100.00;99616.47;5077062;28;20044;-65
2024/01/03 02:47:32;;;;;;;54.47;17.10;;;;;;;6.45;100.00;99615.41;5077535;28;20226;-65
2024/01/03 02:49:58;;;;;;;40.83;14.50;;;;;;;6.30;100.00;99633.38;5076398;28;20034;-63
2024/01/03 02:52:26;;;;;;;49.85;16.10;;;;;;;6.42;100.00;99639.34;5076064;28;20344;-64
2024/01/03 02:54:51;;;;;;;48.38;15.93;;;;;;;6.55;100.00;99634.63;5077334;28;20125;-64
2024/01/03 02:57:17;;;;;;;59.60;17.05;;;;;;;6.68;100.00;99645.72;5076315;28;20032;-65
2024/01/03 02:59:42;;;;;;;53.33;15.15;;;;;;;6.82;100.00;99637.38;5077968;28;20025;-65
2024/01/03 03:02:08;;;;;;;60.88;16.42;;;;;;;6.90;100.00;99634.03;5075461;28;20055;-64
2024/01/03 03:04:33;;;;;;;57.90;15.43;;;;;;;6.98;100.00;99616.56;5077919;28;20038;-64
2024/01/03 03:06:59;;;;;;;46.08;14.75;;;;;;;7.05;100.00;99620.28;5076263;28;20033;-64
2024/01/03 03:09:24;;;;;;;59.10;13.73;;;;;;;6.86;100.00;99625.59;5077722;28;20065;-65
2024/01/03 03:11:49;;;;;;;46.35;13.68;;;;;;;6.85;100.00;99618.69;5074700;28;20346;-65
2024/01/03 03:14:15;;;;;;;45.13;14.27;;;;;;;6.99;100.00;99620.88;5077114;28;20214;-64
2024/01/03 03:16:41;;;;;;;53.78;14.48;;;;;;;7.09;100.00;99622.63;5075227;28;20043;-64
2024/01/03 03:19:07;;;;;;;38.10;14.35;;;;;;;7.03;100.00;99619.59;5076832;28;20097;-64
2024/01/03 03:21:33;;;;;;;67.22;18.92;;;;;;;7.12;100.00;99622.34;5074076;28;20377;-64
2024/01/03 03:23:58;;;;;;;46.00;13.93;;;;;;;7.07;99.68;99612.25;5076027;28;20142;-64
2024/01/03 03:26:23;;;;;;;46.95;16.63;;;;;;;6.98;99.97;99615.75;5075337;28;20163;-65
2024/01/03 03:28:50;;;;;;;32.45;14.50;;;;;;;6.89;100.00;99601.63;5076474;28;20046;-65
2024/01/03 03:31:15;;;;;;;40.47;15.05;;;;;;;6.90;100.00;99613.81;5075779;28;20037;-64
2024/01/03 03:33:41;;;;;;;47.50;16.23;;;;;;;6.91;100.00;99614.66;5076682;28;20036;-64
2024/01/03 03:36:13;;;;;;;35.42;14.18;;;;;;;6.85;100.00;99610.78;5076679;28;20194;-64
2024/01/03 03:38:39;;;;;;;42.70;13.93;;;;;;;6.67;100.00;99615.09;5074168;28;20055;-64
2024/01/03 03:41:12;;;;;;;49.40;18.38;;;;;;;6.62;100.00;99618.16;5076573;28;20333;-65
2024/01/03 03:43:39;;;;;;;61.10;21.60;;;;;;;6.28;100.00;99603.78;5074462;28;20032;-64
2024/01/03 03:46:05;;;;;;;65.45;24.90;;;;;;;6.32;100.00;99616.50;5076389;28;20043;-64
2024/01/03 03:48:30;;;;;;;49.35;22.15;;;;;;;6.25;100.00;99611.94;5074749;28;20107;-64
2024/01/03 03:50:56;;;;;;;41.03;19.15;;;;;;;6.04;100.00;99609.41;5076644;28;20357;-64
2024/01/03 03:53:21;;;;;;;44.78;18.30;;;;;;;6.12;100.00;99606.91;5076002;28;20043;-65
2024/01/03 03:55:47;;;;;;;37.10;17.20;;;;;;;6.27;100.00;99613.47;5076607;28;20033;-65
2024/01/03 03:58:13;;;;;;;96.25;20.98;;;;;;;6.39;100.00;99616.78;5076319;28;20028;-64
2024/01/03 04:00:38;;;;;;;46.38;17.95;;;;;;;6.52;100.00;99627.84;5075666;28;20063;-64
2024/01/03 04:03:07;;;;;;;36.85;18.15;;;;;;;6.50;100.00;99619.28;5075714;28;20218;-63
2024/01/03 04:05:39;;;;;;;46.08;16.90;;;;;;;6.57;100.00;99622.19;5075627;28;20032;-65
2024/01/03 04:08:05;;;;;;;48.08;16.80;;;;;;;6.66;100.00;99618.69;5075661;28;20037;-64
2024/01/03 04:10:31;;;;;;;40.90;16.08;;;;;;;6.73;100.00;99611.91;5075682;28;20041;-64
2024/01/03 04:12:56;;;;;;;39.92;15.95;;;;;;;6.85;100.00;99609.94;5076793;28;20048;-64
2024/01/03 04:15:22;;;;;;;53.58;17.38;;;;;;;6.85;99.98;99616.03;5075026;28;20029;-63
2024/01/03 04:17:48;;;;;;;36.55;16.08;;;;;;;6.90;100.00;99613.81;5076339;28;20036;-65
2024/01/03 04:20:14;;;;;;;53.85;17.38;;;;;;;6.89;99.50;99617.41;5074086;28;20086;-64
2024/01/03 04:22:42;;;;;;;52.30;17.65;;;;;;;6.93;99.39;99608.28;5076421;28;20041;-64
2024/01/03 04:25:08;;;;;;;42.72;17.45;;;;;;;6.93;100.00;99600.38;5074290;28;20348;-64
2024/01/03 04:27:33;;;;;;;39.20;16.30;;;;;;;6.97;99.80;99591.22;5076021;28;20040;-64
2024/01/03 04:29:59;;;;;;;43.88;18.17;;;;;;;6.99;99.65;99599.81;5074573;28;20090;-65
2024/01/03 04:32:24;;;;;;;38.35;17.77;;;;;;;6.97;99.31;99599.13;5076076;28;20039;-64
2024/01/03 04:34:50;;;;;;;61.15;19.15;;;;;;;6.89;98.94;99599.00;5075683;28;20283;-63
2024/01/03 04:37:15;;;;;;;48.55;21.63;;;;;;;6.93;99.21;99591.66;5075965;28;20036;-64
2024/01/03 04:39:40;;;;;;;50.00;19.05;;;;;;;6.93;98.58;99591.66;5075042;28;20145;-64
2024/01/03 04:42:06;;;;;;;51.53;18.00;;;;;;;6.96;98.25;99594.00;5075345;28;20046;-64
2024/01/03 04:44:33;;;;;;;60.35;19.45;;;;;;;6.93;99.54;99600.38;5075142;28;20051;-64
2024/01/03 04:46:58;;;;;;;59.00;18.60;;;;;;;6.95;99.87;99597.59;5075318;28;20033;-65
2024/01/03 04:49:24;;;;;;;41.28;16.17;;;;;;;6.92;98.99;99603.16;5072428;28;20059;-66
2024/01/03 04:51:49;;;;;;;45.17;16.95;;;;;;;6.90;99.44;99591.94;5067734;28;20033;-65
2024/01/03 04:54:15;;;;;;;40.50;17.42;;;;;;;6.91;98.66;99589.16;5066905;28;20036;-65
2024/01/03 04:56:40;;;;;;;61.38;16.92;;;;;;;6.92;97.82;99587.34;5072685;28;20032;-64
2024/01/03 04:59:06;;;;;;;55.25;18.83;;;;;;;6.84;98.63;99588.06;5073702;28;20037;-66
2024/01/03 05:01:31;;;;;;;47.25;17.30;;;;;;;6.86;99.53;99594.00;5074584;28;20048;-66
2024/01/03 05:03:56;;;;;;;55.78;17.83;;;;;;;6.91;99.83;99612.00;5075427;28;20037;-65
2024/01/03 05:06:22;;;;;;;35.30;15.70;;;;;;;6.93;99.20;99600.38;5075488;28;20038;-65
2024/01/03 05:08:47;;;;;;;46.65;16.77;;;;;;;6.91;100.00;99601.50;5075792;28;20361;-64
2024/01/03 05:11:13;;;;;;;35.58;16.02;;;;;;;6.93;99.03;99603.00;5074355;28;20036;-65
2024/01/03 05:13:38;;;;;;;56.30;15.88;;;;;;;6.94;98.52;99599.41;5075534;28;20044;-65
2024/01/03 05:16:04;;;;;;;38.67;15.30;;;;;;;7.00;98.78;99596.19;5078277;28;20036;-64
2024/01/03 05:18:30;;;;;;;34.30;15.50;;;;;;;6.80;98.23;99589.31;5077796;28;20035;-64
2024/01/03 05:20:55;;;;;;;47.25;16.33;;;;;;;6.85;98.64;99597.63;5079324;28;20037;-65
2024/01/03 05:23:20;;;;;;;49.75;17.85;;;;;;;6.79;98.77;99602.63;5076144;28;20036;-64
2024/01/03 05:25:47;;;;;;;41.72;16.35;;;;;;;6.63;97.84;99605.81;5079111;28;20368;-65
2024/01/03 05:28:13;;;;;;;35.47;16.00;;;;;;;6.53;98.47;99605.00;5077944;28;20037;-66
2024/01/03 05:30:40;;;;;;;34.22;15.73;;;;;;;5.78;100.00;99570.47;5079188;28;20051;-65
2024/01/03 05:33:05;;;;;;;29.10;15.48;;;;;;;4.74;100.00;99573.34;5078030;28;20357;-64
2024/01/03 05:35:31;;;;;;;38.70;16.98;;;;;;;4.70;100.00;99569.31;5079138;28;20040;-64
2024/01/03 05:37:56;;;;;;;36.92;17.15;;;;;;;4.94;100.00;99591.81;5078523;28;20047;-64
2024/01/03 05:40:22;;;;;;;42.58;19.85;;;;;;;4.74;100.00;99602.19;5078344;28;20050;-65
2024/01/03 05:42:47;;;;;;;72.05;28.35;;;;;;;5.11;100.00;99623.53;5077104;28;20042;-65
2024/01/03 05:45:13;;;;;;;68.65;25.48;;;;;;;5.34;100.00;99607.66;5078358;28;20040;-64
2024/01/03 05:47:39;;;;;;;57.30;23.05;;;;;;;5.36;100.00;99592.59;5078309;28;20032;-64
2024/01/03 05:50:05;;;;;;;59.72;20.02;;;;;;;5.33;100.00;99595.50;5078171;28;20357;-64
2024/01/03 05:52:33;;;;;;;36.83;17.60;;;;;;;4.86;100.00;99589.84;5076682;28;20036;-65
2024/01/03 05:55:00;;;;;;;35.95;18.02;;;;;;;4.67;100.00;99594.97;5078100;28;20032;-65
2024/01/03 05:57:26;;;;;;;39.35;17.77;;;;;;;4.80;100.00;99598.22;5078629;28;20227;-64
2024/01/03 05:59:51;;;;;;;49.13;18.85;;;;;;;4.73;100.00;99595.28;5076965;28;20052;-64
2024/01/03 06:02:17;;;;;;;39.55;16.65;;;;;;;4.55;100.00;99593.38;5077399;28;20067;-64
2024/01/03 06:04:43;;;;;;;38.45;17.48;;;;;;;4.59;100.00;99598.25;5076755;28;20037;-65
2024/01/03 06:07:09;;;;;;;49.25;16.80;;;;;;;4.77;100.00;99608.97;5077595;28;20066;-66
2024/01/03 06:09:36;;;;;;;65.10;17.55;;;;;;;5.04;100.00;99626.81;5075813;28;20036;-64
2024/01/03 06:12:01;;;;;;;58.75;17.45;;;;;;;5.13;100.00;99658.38;5076368;28;20032;-64
2024/01/03 06:14:27;;;;;;;39.55;18.23;;;;;;;5.26;100.00;99679.19;5075462;28;20028;-64
2024/01/03 06:16:53;;;;;;;46.70;16.73;;;;;;;5.43;100.00;99670.72;5076399;28;20068;-65
2024/01/03 06:19:18;;;;;;;38.47;17.38;;;;;;;5.59;100.00;99662.34;5076274;28;20050;-65
2024/01/03 06:21:43;;;;;;;42.88;17.55;;;;;;;5.69;100.00;99655.34;5076096;28;20032;-64
2024/01/03 06:24:09;;;;;;;42.80;18.83;;;;;;;5.80;100.00;99643.06;5075946;28;20359;-65
2024/01/03 06:26:35;;;;;;;62.90;18.27;;;;;;;6.01;100.00;99651.72;5075533;28;20269;-65
2024/01/03 06:29:01;;;;;;;70.15;19.60;;;;;;;6.06;100.00;99663.50;5076742;28;20036;-65
2024/01/03 06:31:26;;;;;;;66.43;23.75;;;;;;;6.17;100.00;99659.06;5075946;28;20032;-65
2024/01/03 06:33:52;;;;;;;103.32;37.50;;;;;;;6.29;100.00;99645.69;5076418;28;20249;-64
2024/01/03 06:36:17;;;;;;;48.42;19.15;;;;;;;6.45;100.00;99655.69;5075403;28;20028;-64
2024/01/03 06:38:43;;;;;;;38.90;16.38;;;;;;;6.50;100.00;99653.47;5076323;28;20040;-64
2024/01/03 06:41:09;;;;;;;43.90;16.50;;;;;;;6.42;100.00;99653.31;5073341;28;20047;-65
2024/01/03 06:43:34;;;;;;;42.97;17.27;;;;;;;6.44;100.00;99668.97;5076709;28;20036;-64
2024/01/03 06:46:00;;;;;;;50.13;17.90;;;;;;;6.42;100.00;99676.16;5074664;28;20459;-65
2024/01/03 06:48:25;;;;;;;40.53;17.65;;;;;;;6.37;100.00;99673.94;5075158;28;20074;-64
2024/01/03 06:50:51;;;;;;;56.28;18.33;;;;;;;6.33;100.00;99652.34;5074192;28;20338;-64
2024/01/03 06:53:16;;;;;;;43.20;17.45;;;;;;;6.48;100.00;99662.47;5075610;28;20058;-64
2024/01/03 06:55:42;;;;;;;41.40;17.05;;;;;;;6.57;100.00;99657.19;5075630;28;20044;-64
2024/01/03 06:58:07;;;;;;;32.30;15.95;;;;;;;6.61;100.00;99653.31;5075481;28;20040;-65
2024/01/03 07:00:33;;;;;;;35.08;16.08;;;;;;;6.65;100.00;99640.72;5074602;28;20058;-65
2024/01/03 07:02:58;;;;;;;32.10;14.60;;;;;;;6.70;100.00;99635.88;5075505;28;20037;-63
2024/01/03 07:05:24;;;;;;;67.20;21.05;;;;;;;6.61;100.00;99636.72;5076585;28;20037;-64
2024/01/03 07:07:49;;;;;;;32.13;16.60;;;;;;;6.64;100.00;99653.03;5074106;28;20222;-65
2024/01/03 07:10:15;;;;;;;45.25;16.65;;;;;;;6.66;100.00;99652.91;5076733;28;20835;-66
2024/01/03 07:12:40;;;;;;;44.70;17.50;;;;;;;6.80;100.00;99646.38;5074106;28;20028;-64
2024/01/03 07:15:06;;;;;;;38.42;17.80;;;;;;;6.81;100.00;99645.41;5075640;28;20365;-65
2024/01/03 07:17:32;;;;;;;41.70;17.98;;;;;;;6.75;100.00;99644.19;5074292;28;20040;-64
2024/01/03 07:19:57;;;;;;;36.97;15.25;;;;;;;6.65;100.00;99641.56;5074702;28;20052;-65
2024/01/03 07:22:23;;;;;;;43.50;15.95;;;;;;;6.77;100.00;99620.34;5074235;28;20036;-65
2024/01/03 07:24:49;;;;;;;29.50;14.70;;;;;;;6.84;100.00;99621.44;5075064;28;20036;-64
2024/01/03 07:27:15;;;;;;;35.03;15.30;;;;;;;6.88;100.00;99597.34;5073468;28;20028;-65
2024/01/03 07:29:41;;;;;;;39.22;15.27;;;;;;;7.01;100.00;99604.94;5074861;28;20028;-65
2024/01/03 07:32:07;;;;;;;43.95;18.20;;;;;;;7.02;100.00;99606.59;5074398;28;20048;-65
2024/01/03 07:34:32;;;;;;;43.13;17.98;;;;;;;7.09;100.00;99604.22;5074734;28;20082;-65
2024/01/03 07:36:58;;;;;;;45.00;17.25;;;;;;;7.07;100.00;99593.00;5074677;28;20036;-65
2024/01/03 07:39:23;;;;;;;36.38;16.35;;;;;;;7.01;100.00;99595.22;5073687;28;20210;-65
2024/01/03 07:41:50;;;;;;;28.70;14.57;;;;;;;7.04;100.00;99600.19;5075829;28;20048;-67
2024/01/03 07:44:15;;;;;;;32.60;14.60;;;;;;;6.83;100.00;99582.94;5075051;28;20024;-66
2024/01/03 07:46:41;;;;;;;31.17;14.52;;;;;;;6.62;100.00;99593.66;5075469;28;20207;-65
2024/01/03 07:49:07;;;;;;;38.40;16.77;;;;;;;6.24;100.00;99590.06;5073472;28;20040;-64
2024/01/03 07:51:38;;;;;;;32.78;16.40;;;;;;;6.30;100.00;99580.78;5074974;28;20147;-65
2024/01/03 07:54:04;;;;;;;36.38;18.98;;;;;;;6.27;100.00;99574.00;5072950;28;20036;-64
2024/01/03 07:56:30;;;;;;;36.88;15.13;;;;;;;6.17;100.00;99572.31;5074839;28;20097;-63
2024/01/03 07:58:55;;;;;;;34.88;14.77;;;;;;;5.80;100.00;99562.44;5074382;28;20268;-63
2024/01/03 08:01:21;;;;;;;35.13;15.40;;;;;;;5.32;100.00;99549.19;5074577;28;20060;-64
2024/01/03 08:03:47;;;;;;;31.15;15.25;;;;;;;5.23;100.00;99557.88;5073751;28;20051;-64
2024/01/03 08:06:19;;;;;;;30.70;16.52;;;;;;;5.19;100.00;99553.81;5074021;28;20032;-65
2024/01/03 08:08:45;;;;;;;39.25;19.48;;;;;;;5.43;100.00;99557.78;5075586;28;20028;-64
2024/01/03 08:11:11;;;;;;;47.10;19.20;;;;;;;5.67;100.00;99564.50;5074586;28;20212;-63
2024/01/03 08:13:37;;;;;;;37.22;18.63;;;;;;;5.59;100.00;99554.66;5075077;28;20045;-63
2024/01/03 08:16:04;;;;;;;46.08;20.15;;;;;;;5.52;100.00;99566.66;5074436;28;20170;-64
2024/01/03 08:18:29;;;;;;;50.28;23.08;;;;;;;5.50;100.00;99565.13;5075680;28;20040;-64
2024/01/03 08:20:55;;;;;;;44.08;19.13;;;;;;;5.72;100.00;99559.66;5071029;28;20037;-65
2024/01/03 08:23:20;;;;;;;49.55;21.48;;;;;;;5.54;100.00;99563.91;5076089;28;20040;-66
2024/01/03 08:25:46;;;;;;;39.17;18.63;;;;;;;5.41;100.00;99561.53;5068729;28;20090;-64
2024/01/03 08:28:11;;;;;;;40.47;19.02;;;;;;;5.54;100.00;99572.63;5068472;28;20277;-64
2024/01/03 08:30:37;;;;;;;37.47;18.23;;;;;;;5.75;100.00;99577.78;5073917;28;20274;-64
2024/01/03 08:33:03;;;;;;;30.45;14.80;;;;;;;6.02;100.00;99580.63;5074500;28;20072;-66
2024/01/03 08:35:28;;;;;;;29.25;14.57;;;;;;;6.21;100.00;99582.41;5075642;28;20040;-65
2024/01/03 08:37:54;;;;;;;29.65;15.32;;;;;;;6.28;100.00;99565.16;5073939;28;20762;-67
2024/01/03 08:40:21;;;;;;;30.30;15.45;;;;;;;6.28;100.00;99573.03;5074777;28;20111;-64
2024/01/03 08:42:46;;;;;;;32.40;15.98;;;;;;;6.56;100.00;99579.25;5073200;28;20104;-63
2024/01/03 08:45:12;;;;;;;35.05;16.08;;;;;;;6.77;100.00;99581.72;5075039;28;20060;-64
2024/01/03 08:47:37;;;;;;;35.50;17.58;;;;;;;6.96;100.00;99578.19;5074393;28;20028;-65
2024/01/03 08:50:03;;;;;;;38.10;18.73;;;;;;;7.11;100.00;99574.13;5075943;28;20029;-64
2024/01/03 08:52:29;;;;;;;31.77;18.38;;;;;;;7.09;100.00;99580.50;5077897;28;20055;-63
2024/01/03 08:54:54;;;;;;;33.80;16.50;;;;;;;7.16;100.00;99574.53;5078850;28;20038;-64
2024/01/03 08:57:20;;;;;;;34.63;17.55;;;;;;;7.23;100.00;99569.50;5077462;28;20029;-64
2024/01/03 08:59:45;;;;;;;38.85;18.90;;;;;;;7.23;100.00;99554.53;5077742;28;20044;-65
2024/01/03 09:02:11;;;;;;;37.47;19.27;;;;;;;7.18;100.00;99551.50;5077529;28;20110;-63
2024/01/03 09:04:36;;;;;;;44.92;21.40;;;;;;;7.28;100.00;99541.78;5078314;28;20376;-63
2024/01/03 09:07:02;;;;;;;42.70;20.40;;;;;;;7.05;100.00;99520.25;5078299;28;20044;-63
2024/01/03 09:09:27;;;;;;;41.63;19.05;;;;;;;7.18;100.00;99525.19;5078463;28;20125;-64
2024/01/03 09:11:53;;;;;;;42.47;18.17;;;;;;;7.13;100.00;99537.13;5078951;28;20234;-65
2024/01/03 09:14:19;;;;;;;41.00;20.40;;;;;;;7.27;100.00;99542.75;5077941;28;20324;-65
2024/01/03 09:16:45;;;;;;;36.03;16.40;;;;;;;7.31;100.00;99543.31;5078574;28;20033;-65
2024/01/03 09:19:10;;;;;;;39.53;18.80;;;;;;;7.32;100.00;99529.16;5076750;28;20056;-64
2024/01/03 09:21:44;;;;;;;37.67;17.73;;;;;;;7.38;100.00;99514.56;5078607;28;20399;-66
2024/01/03 09:24:09;;;;;;;40.92;19.25;;;;;;;7.31;100.00;99495.91;5077280;28;20037;-66
2024/01/03 09:26:35;;;;;;;40.92;18.88;;;;;;;7.36;100.00;99497.13;5078687;28;20082;-65
2024/01/03 09:29:00;;;;;;;48.95;23.08;;;;;;;7.39;100.00;99508.34;5077858;28;20262;-65
2024/01/03 09:31:26;;;;;;;48.30;22.23;;;;;;;7.41;100.00;99509.00;5077251;28;20036;-65
2024/01/03 09:33:51;;;;;;;43.55;21.85;;;;;;;7.49;100.00;99488.84;5077933;28;20090;-66
2024/01/03 09:36:21;;;;;;;43.50;22.70;;;;;;;7.36;100.00;99478.69;5078395;28;20115;-66
2024/01/03 09:38:47;;;;;;;40.50;20.48;;;;;;;7.35;100.00;99478.81;5077692;28;20091;-65
2024/01/03 09:41:16;;;;;;;48.25;24.15;;;;;;;7.29;100.00;99476.78;5077835;28;20094;-64
2024/01/03 09:43:42;;;;;;;49.33;22.48;;;;;;;7.30;100.00;99473.19;5077280;28;20099;-64
2024/01/03 09:46:11;;;;;;;55.35;24.33;;;;;;;7.29;100.00;99464.44;5076267;28;20297;-64
2024/01/03 09:48:41;;;;;;;74.82;33.30;;;;;;;7.33;100.00;99473.72;5077383;28;20045;-66
2024/01/03 09:51:07;;;;;;;75.85;33.08;;;;;;;7.34;100.00;99478.00;5078659;28;20393;-66
2024/01/03 09:53:33;;;;;;;56.38;25.23;;;;;;;7.39;100.00;99461.75;5077365;28;20234;-65
2024/01/03 09:56:00;;;;;;;50.60;22.75;;;;;;;7.32;100.00;99453.63;5077897;28;20350;-64
2024/01/03 09:58:26;;;;;;;52.47;24.65;;;;;;;7.28;100.00;99462.78;5076354;28;20039;-65
2024/01/03 10:00:52;;;;;;;55.22;22.42;;;;;;;7.04;100.00;99483.53;5077109;28;20429;-66
2024/01/03 10:03:18;;;;;;;70.78;31.77;;;;;;;6.97;100.00;99482.47;5075939;28;20036;-64
2024/01/03 10:05:44;;;;;;;79.30;32.67;;;;;;;6.94;100.00;99483.59;5077848;28;20291;-64
2024/01/03 10:08:17;;;;;;;68.15;29.35;;;;;;;7.00;100.00;99475.09;5077427;28;20028;-64
2024/01/03 10:10:45;;;;;;;64.72;27.42;;;;;;;6.91;100.00;99467.25;5078019;28;20304;-64
2024/01/03 10:13:20;;;;;;;97.60;38.17;;;;;;;6.92;100.00;99466.28;5076236;28;20457;-64
2024/01/03 10:15:47;;;;;;;48.25;22.23;;;;;;;7.05;100.00;99457.06;5077219;28;20040;-66
2024/01/03 10:18:17;;;;;;;84.90;34.45;;;;;;;7.12;100.00;99467.00;5077746;28;20119;-64
2024/01/03 10:20:43;;;;;;;55.35;25.95;;;;;;;7.10;100.00;99469.78;5075999;28;20373;-65
2024/01/03 10:23:13;;;;;;;49.60;22.42;;;;;;;7.09;100.00;99460.22;5075395;28;20052;-65
2024/01/03 10:25:40;;;;;;;52.88;23.90;;;;;;;7.19;100.00;99454.91;5076057;28;20028;-66
2024/01/03 10:28:08;;;;;;;72.43;30.05;;;;;;;7.36;100.00;99448.88;5076260;28;20107;-65
2024/01/03 10:30:34;;;;;;;49.35;22.92;;;;;;;7.47;100.00;99432.03;5075594;28;20021;-65
2024/01/03 10:33:09;;;;;;;50.78;22.15;;;;;;;7.64;100.00;99441.75;5075951;28;20058;-65
2024/01/03 10:35:43;;;;;;;43.88;22.83;;;;;;;7.65;100.00;99431.06;5075591;28;20051;-64
2024/01/03 10:38:09;;;;;;;;;;;;;;;7.69;100.00;99424.50;5076718;28;20040;-66
2024/01/03 10:40:36;;;;;;;42.58;20.65;;;;;;;7.65;100.00;99430.22;5076606;28;19920;-66
2024/01/03 10:43:02;;;;;;;51.00;23.50;;;;;;;7.41;100.00;99419.47;5077629;28;20089;-64
2024/01/03 10:45:30;;;;;;;50.95;22.00;;;;;;;7.45;100.00;99428.72;5074697;28;20024;-63
2024/01/03 10:47:57;;;;;;;56.17;23.58;;;;;;;7.58;100.00;99427.38;5077299;28;20088;-65
2024/01/03 10:50:23;;;;;;;47.53;21.10;;;;;;;7.57;100.00;99416.97;5075386;28;20051;-64
2024/01/03 10:53:02;;;;;;;46.45;21.65;;;;;;;7.61;100.00;99411.25;5077067;28;20072;-66
2024/01/03 10:55:37;;;;;;;42.25;18.80;;;;;;;7.62;100.00;99407.63;5076194;28;20024;-65
2024/01/03 10:58:18;;;;;;;44.08;20.23;;;;;;;7.59;100.00;99401.84;5076826;28;20040;-65
2024/01/03 11:01:18;;;;;;;57.90;22.85;;;;;;;7.62;100.00;99396.28;5075953;28;20048;-65
2024/01/03 11:04:05;;;;;;;41.92;19.05;;;;;;;7.55;100.00;99401.31;5077039;28;20032;-65
2024/01/03 11:06:46;;;;;;;40.33;19.58;;;;;;;7.67;100.00;99389.56;5074097;28;20234;-66
2024/01/03 11:09:12;;;;;;;43.00;20.45;;;;;;;7.84;100.00;99379.16;5076985;28;20051;-66
2024/01/03 11:11:38;;;;;;;40.45;19.70;;;;;;;7.90;100.00;99368.00;5075200;28;20314;-64
2024/01/03 11:14:30;;;;;;;52.30;20.77;;;;;;;7.79;100.00;99381.41;5075597;28;20055;-64
2024/01/03 11:16:56;;;;;;;44.38;21.75;;;;;;;7.65;100.00;99365.16;5072202;28;20120;-65